Amery, WI

2:52 AM CDT on May 27, 2015 (GMT -0500)
KWIBALSA2 | | Change Station
CLOSE
Current Station
Personal Weather Station
Location: Balsam Lake, WI
Elevation: 1191 ft
Nearby Weather Stations

Elev 1191 ft 45.46 °N, 92.41 °W | Updated 1 minute ago

Overcast
Overcast
53.6 °F
Feels Like 53.6 °F
N
0.0
Wind Variable Wind from NNW
Gusts 0.0 mph

Today
High -- | Low -- °F
--% Chance of Precip.
Yesterday
High -- | Low -- °F
Precip. -- in
5:28 AM 8:45 PM
Waxing Gibbous, 65% visible
Pressure 29.85 in
Visibility 7.0 miles
Clouds Clear
Dew Point 49 °F
Humidity 83%
Rainfall 0.00 in
Snow Depth Not available.
UV 0 out of 12
Pollen 3.60 out of 12
Air Quality Not available.
Flu Activity Sporadic
METAR KOEO 270735Z AUTO 27003KT 7SM CLR 13/13 A2985 RMK AO2 T01250125

More Conditions Fewer Conditions

Pressure 29.85 in
Visibility 7.0 miles
Clouds Clear
Dew Point 49 °F
Humidity 83%
Rainfall 0.00 in
Snow Depth Not available.
UV 0 out of 12
Pollen 3.60 out of 12
Air Quality Not available.
Flu Activity Sporadic
METAR KOEO 270735Z AUTO 27003KT 7SM CLR 13/13 A2985 RMK AO2 T01250125

More Conditions Fewer Conditions

10-Day Weather Forecast

Almanac

Astronomy

May. 27, 2015 Rise Set
Actual Time
Civil Twilight
Nautical Twilight
Astronomical Twilight
Moon
Length of Visible Light
Length of Day
Tomorrow will be .
, % of the Moon is Illuminated

Today's Extremes

State Highs State Lows

Community

WunderPhotos

Upload Photos

1,824,632 photos uploaded!

WunderBlogs® & News

Nearby

Air Quality

  Air Quality AQ Index Pollutant
Not available.

Snow Depth

Station Depth Elevation

Earthquake Activity

City Distance Mag. Time & Date
Minimum magnitude displayed is 2.5.

Coastal Water Temperatures

Place Temperature

Stations

Nearby Weather Stations

Station Location Temp. Windchill Dew Point Humidity Wind Precip. Elev Updated Type